메인 페이지
METAR-TAF:

METAR-TAF

공항 :

스탠리, 포클랜드 제도

위도: 51-49S, 경도: 058-27W, 고도: 74m

현재 날씨관측

예보는 52분 전, 11:50시(UTC)에 발표되었습니다.
13kt
온도 -3°C
습도 93%
기압 984 hPa
시정 10km 이상
고도 2500ft 상공 구름 조금

METAR: EGYP 221150Z 28013KT 9999 FEW025 M03/M04 Q0984 BLU TEMPO 0500 +SHSN VV/// RED

시각: 09:42 (12:42 UTC)

예보

예보는 2 시간 39분 전, 10:03시(UTC)에 발표되었습니다.
예보 대상 시간: 22일 12시부터 23일 06시까지 (UTC)
18kt
시정 10km 이상
고도 2500ft 상공 구름 보통
일시적
22일 12시부터 23일 06시까지 (UTC)
22kt, 순간 최대 풍속 35kt
시정: 3000m
고도 1800ft 상공 구름 많음, 적란운.
소낙눈
확률 30% :
일시적
22일 12시부터 23일 06시까지 (UTC)
시정: 0700m
고도 400ft 상공 구름 보통
고도 1200ft 상공 구름 많음, 적란운.
강한소낙눈
전환 중
22일 21시부터 22일 24시까지 (UTC)
남서18kt, 순간 최대 풍속 28kt
전환 중
23일 00시부터 23일 03시까지 (UTC)
20kt, 순간 최대 풍속 30kt

TAF: EGYP 221003Z 2212/2306 27018KT 9999 SCT025 TEMPO 2212/2306 26022G35KT 3000 SHSN BKN018CB PROB30 TEMPO 2212/2306 0700 +SHSN SCT004 BKN012CB BECMG 2221/2224 22018G28KT BECMG 2300/2303 19020G30KT

4,000개 이상의 공항 관측 자료 및 예보 (METAR 및 TAF 보고).

지도상에서 검색 가능한 기상관측소가 노란 점과 빨간 점으로 표시되어 있습니다.

기상관측소 명을 보려면 표시 위로 마우스를 이동하세요.

날씨 관측과 예보를 보려면 클릭하세요.

지도 변경 : 확대하려면 엑스 표시가 있는 녹색 버튼, 축소하려면 빼기 표시가 있는 녹색 버튼, 다음 페이지의 지도를 보려면 녹색 화살표를 클릭하세요.


METAR-TAF: